createdAt,value
2024-01-24T00:01:33.476Z,64.07
2024-01-24T00:04:06.486Z,64.07
2024-01-24T00:06:40.011Z,64.02
2024-01-24T00:09:12.971Z,64.16
2024-01-24T00:11:45.949Z,64.10
2024-01-24T00:14:19.019Z,64.37
2024-01-24T00:16:53.205Z,64.19
2024-01-24T00:19:26.287Z,64.26
2024-01-24T00:21:59.198Z,64.26
2024-01-24T00:24:32.149Z,64.30
2024-01-24T00:27:05.333Z,64.39
2024-01-24T00:29:38.215Z,64.22
2024-01-24T00:32:12.426Z,64.54
2024-01-24T00:34:45.324Z,64.31
2024-01-24T00:37:18.345Z,64.38
2024-01-24T00:39:51.230Z,64.57
2024-01-24T00:42:24.253Z,64.45
2024-01-24T00:44:57.501Z,64.57
2024-01-24T00:47:31.761Z,64.45
2024-01-24T00:50:05.891Z,64.45
2024-01-24T00:52:38.866Z,64.62
2024-01-24T00:55:11.799Z,64.48
2024-01-24T00:57:44.754Z,64.59
2024-01-24T01:00:18.405Z,64.57
2024-01-24T01:02:52.858Z,64.62
2024-01-24T01:05:26.570Z,64.65
2024-01-24T01:07:59.444Z,64.65
2024-01-24T01:10:32.343Z,64.57
2024-01-24T01:13:05.910Z,64.53
2024-01-24T01:15:38.880Z,64.44
2024-01-24T01:18:13.169Z,64.58
2024-01-24T01:20:46.057Z,64.44
2024-01-24T01:23:18.927Z,64.47
2024-01-24T01:25:51.801Z,64.49
2024-01-24T01:28:24.708Z,64.49
2024-01-24T01:30:57.596Z,64.57
2024-01-24T01:33:31.951Z,64.53
2024-01-24T01:36:13.971Z,64.39
2024-01-24T01:38:55.664Z,64.34
2024-01-24T01:41:28.605Z,64.40
2024-01-24T01:44:01.447Z,64.29
2024-01-24T01:46:34.947Z,64.37
2024-01-24T01:49:09.686Z,64.36
2024-01-24T01:51:42.881Z,64.45
2024-01-24T01:54:17.042Z,64.45
2024-01-24T01:56:49.970Z,64.40
2024-01-24T01:59:22.927Z,64.42
2024-01-24T02:01:59.026Z,64.51
2024-01-24T02:04:33.280Z,64.37
2024-01-24T02:07:07.330Z,64.36
2024-01-24T02:09:40.323Z,64.32
2024-01-24T02:12:13.216Z,64.27
2024-01-24T02:14:46.140Z,64.24
2024-01-24T02:17:19.069Z,64.32
2024-01-24T02:19:53.445Z,64.35
2024-01-24T02:22:26.414Z,64.19
2024-01-24T02:25:00.919Z,64.28
2024-01-24T02:27:33.947Z,64.23
2024-01-24T02:30:07.902Z,64.32
2024-01-24T02:32:40.771Z,63.88
2024-01-24T02:35:13.708Z,64.22
2024-01-24T02:37:46.561Z,64.08
2024-01-24T02:40:20.869Z,64.26
2024-01-24T02:42:53.913Z,64.33
2024-01-24T02:45:26.882Z,64.33
2024-01-24T02:47:59.844Z,64.21
2024-01-24T02:50:32.817Z,64.22
2024-01-24T02:53:05.889Z,64.24
2024-01-24T02:55:40.082Z,64.21
2024-01-24T02:58:12.949Z,64.06
2024-01-24T03:00:46.254Z,64.11
2024-01-24T03:03:19.183Z,63.95
2024-01-24T03:05:52.073Z,64.03
2024-01-24T03:08:24.916Z,64.02
2024-01-24T03:10:59.088Z,64.02
2024-01-24T03:13:32.001Z,63.96
2024-01-24T03:16:05.141Z,63.92
2024-01-24T03:18:38.676Z,63.75
2024-01-24T03:21:16.479Z,63.92
2024-01-24T03:23:49.431Z,63.81
2024-01-24T03:26:23.634Z,63.73
2024-01-24T03:28:56.496Z,63.79
2024-01-24T03:31:29.357Z,63.82
2024-01-24T03:34:02.315Z,63.83
2024-01-24T03:36:35.377Z,63.80
2024-01-24T03:39:10.617Z,63.70
2024-01-24T03:41:44.854Z,63.71
2024-01-24T03:44:17.676Z,63.72
2024-01-24T03:46:50.555Z,63.68
2024-01-24T03:49:23.651Z,63.57
2024-01-24T03:51:56.644Z,63.52
2024-01-24T03:54:29.603Z,63.45
2024-01-24T03:57:03.819Z,63.41
2024-01-24T03:59:38.873Z,63.25
2024-01-24T04:02:12.181Z,63.25
2024-01-24T04:04:46.335Z,63.15
2024-01-24T04:07:19.340Z,62.82
2024-01-24T04:09:52.312Z,62.74
2024-01-24T04:12:26.650Z,62.64
2024-01-24T04:14:59.717Z,62.51
2024-01-24T04:17:32.687Z,62.54
2024-01-24T04:20:06.563Z,62.44
2024-01-24T04:22:39.446Z,62.27
2024-01-24T04:25:12.693Z,62.24
2024-01-24T04:27:47.141Z,62.12
2024-01-24T04:30:20.193Z,62.15
2024-01-24T04:32:53.254Z,61.98
2024-01-24T04:35:26.125Z,62.11
2024-01-24T04:37:59.003Z,62.02
2024-01-24T04:40:31.863Z,61.94
2024-01-24T04:43:06.172Z,61.90
2024-01-24T04:45:39.085Z,61.91
2024-01-24T04:48:12.289Z,61.83
2024-01-24T04:50:45.503Z,61.77
2024-01-24T04:53:18.507Z,61.81
2024-01-24T04:55:51.392Z,61.71
2024-01-24T04:58:25.620Z,61.87
2024-01-24T05:00:58.613Z,61.59
2024-01-24T05:03:31.617Z,61.56
2024-01-24T05:06:10.354Z,61.65
2024-01-24T05:08:44.299Z,61.59
2024-01-24T05:11:17.175Z,61.63
2024-01-24T05:13:51.510Z,61.55
2024-01-24T05:16:24.423Z,61.61
2024-01-24T05:18:57.519Z,61.61
2024-01-24T05:21:30.509Z,61.59
2024-01-24T05:24:03.596Z,61.64
2024-01-24T05:26:36.788Z,61.70
2024-01-24T05:29:11.025Z,61.88
2024-01-24T05:31:46.046Z,61.98
2024-01-24T05:34:19.645Z,62.19
2024-01-24T05:36:54.785Z,62.11
2024-01-24T05:39:27.897Z,62.43
2024-01-24T05:42:00.759Z,62.68
2024-01-24T05:44:35.389Z,62.94
2024-01-24T05:47:08.280Z,63.15
2024-01-24T05:49:41.380Z,63.28
2024-01-24T05:52:14.217Z,63.50
2024-01-24T05:54:47.187Z,63.72
2024-01-24T05:57:20.110Z,63.86
2024-01-24T05:59:54.385Z,64.13
2024-01-24T06:02:27.312Z,64.22
2024-01-24T06:05:00.483Z,64.38
2024-01-24T06:07:33.992Z,64.42
2024-01-24T06:10:08.110Z,64.83
2024-01-24T06:12:41.041Z,65.01
2024-01-24T06:15:15.253Z,65.33
2024-01-24T06:17:48.434Z,65.42
2024-01-24T06:20:21.357Z,65.50
2024-01-24T06:22:54.232Z,65.57
2024-01-24T06:25:27.138Z,65.84
2024-01-24T06:28:00.063Z,65.78
2024-01-24T06:30:34.598Z,65.95
2024-01-24T06:33:07.581Z,66.00
2024-01-24T06:35:40.503Z,66.19
2024-01-24T06:38:14.123Z,66.10
2024-01-24T06:40:46.991Z,66.31
2024-01-24T06:43:21.644Z,66.50
2024-01-24T06:45:56.124Z,66.62
2024-01-24T06:48:29.127Z,66.57
2024-01-24T06:51:02.208Z,66.65
2024-01-24T06:53:35.084Z,66.79
2024-01-24T06:56:09.741Z,66.92
2024-01-24T06:58:42.779Z,66.90
2024-01-24T07:01:17.145Z,67.18
2024-01-24T07:03:50.229Z,67.34
2024-01-24T07:06:23.278Z,67.31
2024-01-24T07:08:57.414Z,67.43
2024-01-24T07:11:30.887Z,67.49
2024-01-24T07:14:04.518Z,67.52
2024-01-24T07:16:39.225Z,67.75
2024-01-24T07:19:12.192Z,67.81
2024-01-24T07:21:45.242Z,67.84
2024-01-24T07:24:18.230Z,67.79
2024-01-24T07:26:51.075Z,68.07
2024-01-24T07:29:24.293Z,68.12
2024-01-24T07:31:58.497Z,68.46
2024-01-24T07:34:31.761Z,68.25
2024-01-24T07:37:05.172Z,68.39
2024-01-24T07:39:38.253Z,68.52
2024-01-24T07:42:11.153Z,68.39
2024-01-24T07:44:44.054Z,68.49
2024-01-24T07:47:20.729Z,68.74
2024-01-24T07:49:54.515Z,68.98
2024-01-24T07:52:36.402Z,68.94
2024-01-24T07:55:17.571Z,68.92
2024-01-24T07:57:50.925Z,69.09
2024-01-24T08:00:23.963Z,69.06
2024-01-24T08:02:59.251Z,69.23
2024-01-24T08:05:33.462Z,69.34
2024-01-24T08:08:06.996Z,69.43
2024-01-24T08:10:40.034Z,69.42
2024-01-24T08:13:12.967Z,69.62
2024-01-24T08:15:47.944Z,69.63
2024-01-24T08:18:22.433Z,70.03
2024-01-24T08:20:56.511Z,70.00
2024-01-24T08:23:37.897Z,69.23
2024-01-24T08:26:15.890Z,69.73
2024-01-24T08:28:49.029Z,69.92
2024-01-24T08:31:22.049Z,70.11
2024-01-24T08:33:56.534Z,70.21
2024-01-24T08:36:29.545Z,70.23
2024-01-24T08:39:03.913Z,70.46
2024-01-24T08:41:36.984Z,70.72
2024-01-24T08:44:09.927Z,70.66
2024-01-24T08:46:43.486Z,70.78
2024-01-24T08:49:19.580Z,70.95
2024-01-24T08:51:53.346Z,70.90
2024-01-24T08:54:26.695Z,70.98
2024-01-24T08:57:00.382Z,71.06
2024-01-24T08:59:33.868Z,71.11
2024-01-24T09:02:08.784Z,71.08
2024-01-24T09:04:43.753Z,71.40
2024-01-24T09:07:19.421Z,71.42
2024-01-24T09:09:54.303Z,71.54
2024-01-24T09:12:36.930Z,71.54
2024-01-24T09:15:11.344Z,71.46
2024-01-24T09:17:45.343Z,71.58
2024-01-24T09:20:20.397Z,71.49
2024-01-24T09:22:54.050Z,71.79
2024-01-24T09:25:27.465Z,71.57
2024-01-24T09:28:01.278Z,71.78
2024-01-24T09:30:34.773Z,71.84
2024-01-24T09:33:08.766Z,71.92
2024-01-24T09:35:45.393Z,71.18
2024-01-24T09:38:19.089Z,71.46
2024-01-24T09:40:52.817Z,71.68
2024-01-24T09:43:31.261Z,71.75
2024-01-24T09:46:59.473Z,71.98
2024-01-24T09:49:34.221Z,71.86
2024-01-24T09:52:10.687Z,72.03
2024-01-24T09:54:46.301Z,72.17
2024-01-24T09:57:20.120Z,72.13
2024-01-24T09:59:57.068Z,71.99
2024-01-24T10:02:30.770Z,72.31
2024-01-24T10:05:07.185Z,72.22
2024-01-24T10:07:45.304Z,72.35
2024-01-24T10:10:19.358Z,72.28
2024-01-24T10:12:53.012Z,72.39
2024-01-24T10:15:26.530Z,72.26
2024-01-24T10:17:59.972Z,72.42
2024-01-24T10:20:33.250Z,72.40
2024-01-24T10:23:08.117Z,72.52
2024-01-24T10:25:42.512Z,72.52
2024-01-24T10:28:18.376Z,72.51
2024-01-24T10:30:51.581Z,72.50
2024-01-24T10:33:25.037Z,72.57
2024-01-24T10:38:33.925Z,72.33
2024-01-24T10:41:12.146Z,72.20
2024-01-24T10:43:49.733Z,72.05
2024-01-24T10:46:24.781Z,72.09
2024-01-24T10:48:58.772Z,72.07
2024-01-24T10:51:32.722Z,71.98
2024-01-24T10:54:09.676Z,72.11
2024-01-24T10:56:48.160Z,71.98
2024-01-24T10:59:22.392Z,71.78
2024-01-24T11:01:55.768Z,71.85
2024-01-24T11:04:30.895Z,71.78
2024-01-24T11:07:08.455Z,71.80
2024-01-24T11:09:54.460Z,71.75
2024-01-24T11:12:27.983Z,71.75
2024-01-24T11:15:06.697Z,71.94
2024-01-24T11:17:41.029Z,71.79
2024-01-24T11:20:15.355Z,71.94
2024-01-24T11:22:49.453Z,72.10
2024-01-24T11:25:39.719Z,71.98
2024-01-24T11:28:13.075Z,72.15
2024-01-24T11:30:46.705Z,72.29
2024-01-24T11:33:20.036Z,72.15
2024-01-24T11:35:55.274Z,72.21
2024-01-24T11:38:36.070Z,72.37
2024-01-24T11:41:25.303Z,72.11
2024-01-24T11:43:58.771Z,72.22
2024-01-24T11:46:32.524Z,71.54
2024-01-24T11:49:08.163Z,71.79
2024-01-24T11:51:43.420Z,72.09
2024-01-24T11:54:16.624Z,71.90
2024-01-24T11:56:51.174Z,71.91
2024-01-24T11:59:24.176Z,71.94
2024-01-24T12:01:57.505Z,71.71
2024-01-24T12:04:30.693Z,71.61
2024-01-24T12:07:04.078Z,71.57
2024-01-24T12:09:37.290Z,71.36
2024-01-24T12:12:12.684Z,71.13
2024-01-24T12:14:46.608Z,70.11
2024-01-24T12:17:20.269Z,68.79
2024-01-24T12:19:53.821Z,66.59
2024-01-24T12:22:30.388Z,65.10
2024-01-24T12:25:05.035Z,62.90
2024-01-24T12:27:39.469Z,61.46
2024-01-24T12:30:15.891Z,61.35
2024-01-24T12:32:50.307Z,62.14
2024-01-24T12:35:26.052Z,62.80
2024-01-24T12:38:01.081Z,63.60
2024-01-24T12:40:34.287Z,64.39
2024-01-24T12:43:09.775Z,64.70
2024-01-24T12:45:43.250Z,65.34
2024-01-24T12:48:23.094Z,65.71
2024-01-24T12:50:58.102Z,66.23
2024-01-24T12:53:33.225Z,66.33
2024-01-24T12:56:07.812Z,67.11
2024-01-24T12:58:42.624Z,67.53
2024-01-24T13:01:15.863Z,67.82
2024-01-24T13:03:49.273Z,68.17
2024-01-24T13:06:23.222Z,68.28
2024-01-24T13:08:56.021Z,68.00
2024-01-24T13:11:29.455Z,68.22
2024-01-24T13:14:04.109Z,68.39
2024-01-24T13:16:37.677Z,68.74
2024-01-24T13:19:11.684Z,68.81
2024-01-24T13:21:46.422Z,68.96
2024-01-24T13:24:20.177Z,69.18
2024-01-24T13:26:55.683Z,68.38
2024-01-24T13:29:31.585Z,68.75
2024-01-24T13:32:05.265Z,68.97
2024-01-24T13:34:38.704Z,68.47
2024-01-24T13:37:12.580Z,68.58
2024-01-24T13:39:48.075Z,68.75
2024-01-24T13:42:21.964Z,67.20
2024-01-24T13:44:58.670Z,65.30
2024-01-24T13:47:35.967Z,63.56
2024-01-24T13:50:14.903Z,62.62
2024-01-24T13:52:48.712Z,62.50
2024-01-24T13:55:26.694Z,63.09
2024-01-24T13:58:02.167Z,63.35
2024-01-24T14:00:37.347Z,63.60
2024-01-24T14:03:12.484Z,63.95
2024-01-24T14:05:48.615Z,64.36
2024-01-24T14:08:23.141Z,64.36
2024-01-24T14:10:57.354Z,64.57
2024-01-24T14:13:31.308Z,64.44
2024-01-24T14:16:08.823Z,64.38
2024-01-24T14:18:43.052Z,64.10
2024-01-24T14:21:24.308Z,64.12
2024-01-24T14:23:59.494Z,64.09
2024-01-24T14:26:34.898Z,64.20
2024-01-24T14:29:11.301Z,64.40
2024-01-24T14:31:49.112Z,64.48
2024-01-24T14:37:11.072Z,64.57
2024-01-24T14:39:45.000Z,64.72
2024-01-24T14:42:18.109Z,64.87
2024-01-24T14:44:51.869Z,65.09
2024-01-24T14:47:26.121Z,64.84
2024-01-24T14:49:59.700Z,65.17
2024-01-24T14:52:32.671Z,64.97
2024-01-24T14:55:06.568Z,64.98
2024-01-24T14:57:39.965Z,65.61
2024-01-24T15:00:14.240Z,65.65
2024-01-24T15:02:48.802Z,66.02
2024-01-24T15:05:25.378Z,66.11
2024-01-24T15:07:58.586Z,66.46
2024-01-24T15:10:31.585Z,66.70
2024-01-24T15:13:04.682Z,67.11
2024-01-24T15:15:37.871Z,67.40
2024-01-24T15:18:12.315Z,67.75
2024-01-24T15:20:53.909Z,67.87
2024-01-24T15:23:36.182Z,68.11
2024-01-24T15:26:11.215Z,68.36
2024-01-24T15:28:44.335Z,68.39
2024-01-24T15:31:19.152Z,68.87
2024-01-24T15:33:54.150Z,68.61
2024-01-24T15:36:30.828Z,68.55
2024-01-24T15:39:08.479Z,68.55
2024-01-24T15:41:42.185Z,68.55
2024-01-24T15:44:15.269Z,68.45
2024-01-24T15:46:48.188Z,68.29
2024-01-24T15:49:22.448Z,68.25
2024-01-24T15:51:55.506Z,67.95
2024-01-24T15:54:28.633Z,67.82
2024-01-24T15:57:01.713Z,67.97
2024-01-24T15:59:34.940Z,67.57
2024-01-24T16:02:08.003Z,67.54
2024-01-24T16:04:42.983Z,67.17
2024-01-24T16:07:16.336Z,66.82
2024-01-24T16:09:49.337Z,66.88
2024-01-24T16:12:23.518Z,66.72
2024-01-24T16:14:56.477Z,66.35
2024-01-24T16:17:29.398Z,66.38
2024-01-24T16:20:04.133Z,66.24
2024-01-24T16:22:39.212Z,66.06
2024-01-24T16:25:19.599Z,65.98
2024-01-24T16:27:52.663Z,65.98
2024-01-24T16:30:28.862Z,65.83
2024-01-24T16:33:02.498Z,65.97
2024-01-24T16:35:36.788Z,65.94
2024-01-24T16:38:10.382Z,65.81
2024-01-24T16:40:43.474Z,65.98
2024-01-24T16:43:16.689Z,65.90
2024-01-24T16:45:50.554Z,65.90
2024-01-24T16:48:23.926Z,65.87
2024-01-24T16:50:59.309Z,65.68
2024-01-24T16:53:36.586Z,65.80
2024-01-24T16:56:09.737Z,65.90
2024-01-24T16:58:42.772Z,65.70
2024-01-24T17:01:15.703Z,65.80
2024-01-24T17:03:50.531Z,65.88
2024-01-24T17:06:27.310Z,65.96
2024-01-24T17:09:00.199Z,66.04
2024-01-24T17:11:33.018Z,66.04
2024-01-24T17:14:06.436Z,65.97
2024-01-24T17:16:40.484Z,66.02
2024-01-24T17:19:13.617Z,65.93
2024-01-24T17:21:48.466Z,65.99
2024-01-24T17:24:21.957Z,65.78
2024-01-24T17:26:54.891Z,65.68
2024-01-24T17:29:27.792Z,65.56
2024-01-24T17:32:00.937Z,65.40
2024-01-24T17:34:34.156Z,65.23
2024-01-24T17:37:08.897Z,65.01
2024-01-24T17:39:42.145Z,64.72
2024-01-24T17:42:15.825Z,64.56
2024-01-24T17:44:48.833Z,64.18
2024-01-24T17:47:24.095Z,64.33
2024-01-24T17:49:57.356Z,63.96
2024-01-24T17:52:31.671Z,64.00
2024-01-24T17:55:13.204Z,63.96
2024-01-24T17:57:47.986Z,64.01
2024-01-24T18:00:24.563Z,64.03
2024-01-24T18:03:00.339Z,63.63
2024-01-24T18:05:38.150Z,63.43
2024-01-24T18:08:12.807Z,63.59
2024-01-24T18:10:50.962Z,63.56
2024-01-24T18:13:27.404Z,63.76
2024-01-24T18:16:00.549Z,63.72
2024-01-24T18:18:34.510Z,63.68
2024-01-24T18:21:09.251Z,63.77
2024-01-24T18:23:44.623Z,63.80
2024-01-24T18:26:22.952Z,63.62
2024-01-24T18:28:56.205Z,63.97
2024-01-24T18:31:29.082Z,63.81
2024-01-24T18:34:02.038Z,63.85
2024-01-24T18:36:35.297Z,63.90
2024-01-24T18:39:12.853Z,63.92
2024-01-24T18:41:45.971Z,63.92
2024-01-24T18:44:20.730Z,64.19
2024-01-24T18:46:56.174Z,64.45
2024-01-24T18:49:29.246Z,64.49
2024-01-24T18:52:03.092Z,64.57
2024-01-24T18:54:37.533Z,64.23
2024-01-24T18:57:12.052Z,64.21
2024-01-24T18:59:47.055Z,64.36
2024-01-24T19:02:20.327Z,64.37
2024-01-24T19:04:53.486Z,64.47
2024-01-24T19:07:26.645Z,64.42
2024-01-24T19:10:01.364Z,64.47
2024-01-24T19:12:34.543Z,64.60
2024-01-24T19:15:08.707Z,64.65
2024-01-24T19:17:41.799Z,64.62
2024-01-24T19:20:15.934Z,64.66
2024-01-24T19:22:49.194Z,64.66
2024-01-24T19:25:23.626Z,64.78
2024-01-24T19:27:56.635Z,64.76
2024-01-24T19:30:29.614Z,64.81
2024-01-24T19:33:02.694Z,64.86
2024-01-24T19:35:35.797Z,64.73
2024-01-24T19:38:08.773Z,64.59
2024-01-24T19:40:43.346Z,64.83
2024-01-24T19:43:16.211Z,64.58
2024-01-24T19:45:49.280Z,64.50
2024-01-24T19:48:22.551Z,64.59
2024-01-24T19:50:55.489Z,64.46
2024-01-24T19:53:33.460Z,64.54
2024-01-24T19:56:08.827Z,64.31
2024-01-24T19:58:41.762Z,64.49
2024-01-24T20:01:14.960Z,64.19
2024-01-24T20:03:47.967Z,64.03
2024-01-24T20:06:20.922Z,64.08
2024-01-24T20:09:02.295Z,63.80
2024-01-24T20:11:43.054Z,63.92
2024-01-24T20:14:16.788Z,63.71
2024-01-24T20:16:50.154Z,63.67
2024-01-24T20:19:24.784Z,63.52
2024-01-24T20:21:57.847Z,63.44
2024-01-24T20:24:33.644Z,63.42
2024-01-24T20:27:08.715Z,63.20
2024-01-24T20:29:48.193Z,63.21
2024-01-24T20:32:29.002Z,63.14
2024-01-24T20:35:02.269Z,63.11
2024-01-24T20:37:35.315Z,63.17
2024-01-24T20:40:09.616Z,63.27
2024-01-24T20:42:44.844Z,63.20
2024-01-24T20:45:17.872Z,63.33
2024-01-24T20:47:57.645Z,63.26
2024-01-24T20:50:33.924Z,63.21
2024-01-24T20:53:07.327Z,63.40
2024-01-24T20:55:40.338Z,63.28
2024-01-24T20:58:15.213Z,63.44
2024-01-24T21:00:48.594Z,63.34
2024-01-24T21:03:21.813Z,63.43
2024-01-24T21:05:58.248Z,63.41
2024-01-24T21:08:32.276Z,63.36
2024-01-24T21:11:05.904Z,63.33
2024-01-24T21:13:40.187Z,63.57
2024-01-24T21:16:13.181Z,63.55
2024-01-24T21:18:47.384Z,63.72
2024-01-24T21:21:20.566Z,63.75
2024-01-24T21:23:54.995Z,63.83
2024-01-24T21:26:28.087Z,63.95
2024-01-24T21:29:02.299Z,64.18
2024-01-24T21:31:35.270Z,64.68
2024-01-24T21:34:08.975Z,65.13
2024-01-24T21:36:47.670Z,64.55
2024-01-24T21:39:22.456Z,64.99
2024-01-24T21:41:55.377Z,65.56
2024-01-24T21:44:29.611Z,65.94
2024-01-24T21:47:03.015Z,66.04
2024-01-24T21:49:39.226Z,66.28
2024-01-24T21:52:14.745Z,66.36
2024-01-24T21:54:52.415Z,66.42
2024-01-24T21:57:25.721Z,66.48
2024-01-24T21:59:59.982Z,66.48
2024-01-24T22:02:33.016Z,66.22
2024-01-24T22:05:06.224Z,66.17
2024-01-24T22:07:39.514Z,65.92
2024-01-24T22:10:12.827Z,65.69
2024-01-24T22:12:46.665Z,65.37
2024-01-24T22:15:20.794Z,65.15
2024-01-24T22:17:53.738Z,64.87
2024-01-24T22:20:26.800Z,64.62
2024-01-24T22:23:00.114Z,64.46
2024-01-24T22:25:33.081Z,64.35
2024-01-24T22:28:06.440Z,64.10
2024-01-24T22:30:40.742Z,64.02
2024-01-24T22:33:13.725Z,63.74
2024-01-24T22:35:46.845Z,63.71
2024-01-24T22:38:19.734Z,63.47
2024-01-24T22:40:52.593Z,63.38
2024-01-24T22:43:25.620Z,63.16
2024-01-24T22:45:59.905Z,63.23
2024-01-24T22:48:33.057Z,63.14
2024-01-24T22:51:06.414Z,63.10
2024-01-24T22:53:39.337Z,63.23
2024-01-24T22:56:12.244Z,63.23
2024-01-24T22:58:45.168Z,63.25
2024-01-24T23:01:19.696Z,63.34
2024-01-24T23:03:52.717Z,63.37
2024-01-24T23:06:25.766Z,63.30
2024-01-24T23:08:58.597Z,63.49
2024-01-24T23:11:31.530Z,63.78
2024-01-24T23:14:06.087Z,64.01
2024-01-24T23:16:40.292Z,64.48
2024-01-24T23:19:14.443Z,64.73
2024-01-24T23:21:47.438Z,65.11
2024-01-24T23:24:20.370Z,65.43
2024-01-24T23:26:53.287Z,65.84
2024-01-24T23:29:26.167Z,65.86
2024-01-24T23:32:00.618Z,66.25
2024-01-24T23:34:33.598Z,66.51
2024-01-24T23:37:06.723Z,66.68
2024-01-24T23:39:39.772Z,67.06
2024-01-24T23:42:14.935Z,67.25
2024-01-24T23:44:47.893Z,67.71
2024-01-24T23:47:22.174Z,67.75
2024-01-24T23:49:55.381Z,67.99
2024-01-24T23:52:28.739Z,68.03
2024-01-24T23:55:01.736Z,68.40
2024-01-24T23:57:34.617Z,68.48
